Airfield :
LOGIN :

Register | Disclaimer

   EN    FR    IT 

 










Legend :    VFR   Marginal VFR   IFR   Intensive IFR   Very Intensive IFR
Visi :
Ceiling :
>= 8 km
>= 3000ft
5 to 8 km
1000 to 3000 ft
1500m to 5 km
500 to 1000 ft
800 to 1500m
200 to 500 ft
< 800m
< 200 ft
Symbols :   Thunderstorms  Fog  Heavy snow  Heavy precipitations  Wind > 20 kt
SIGMETs :     Misc.  Thunderstorms  Icing  Turbulence  Mountain Waves  Volcanic Ashes







- Airport Elevation : 392 ft
- IATA code : CDG
- Download approach charts


LFPG - Paris-Aeroport Charles De Gaulle

CURRENT METAR :
  • 160830Z 32004KT 9999 FEW016 SCT021 03/02 Q1014 NOSIG

EXPIRED METARs :
  • 160800Z 34005KT 9999 FEW016 SCT021 04/02 Q1014 NOSIG
  • 160730Z 34005KT 9999 BKN025 04/02 Q1013 NOSIG
  • 160700Z 33009KT 9999 BKN025 04/02 Q1013 NOSIG
  • 160630Z 34011KT 9999 BKN022 BKN040 04/02 Q1012 NOSIG
  • 160600Z 33010KT 9999 SCT033 BKN040 04/02 Q1012 NOSIG

TAF TAF LFPG
Valid from the 16 at 06:00 until the 17 at 12:00 UTC


160500Z 1606/1712 32010KT 9999 BKN030
BECMG 1612/1615 CAVOK
BECMG 1622/1623 24003KT BKN008 BKN010
BECMG 1704/1706 4000 BR BKN006
PROB40
TEMPO 1708/1710 0800 BCFG BKN003
BECMG 1710/1712 8000 NSW BKN008 TX06/1614Z TN00/1709Z
ATIS : +33 1 48 62 10 92
No reported NOTAMs for that airfield.



MET'MAP, your aeronautical weather chart ! - Copyright ORBIFLY December 2007 - Disclaimer

ORBIFLY MET'MAP TEAM :

Programming & Development : Alexandra Zaïnal
Concept & Development : Baudouin d'Aumeries
Co-Development & Prog : Marc-Olivier Méhu
Technical & hardware support : Manuel Goepfert

Contact : metmap@orbifly.com




SOURCES & CREDITS :

   NOAA